sensor_id;sensor_type;location;lat;lon;timestamp;temperature;humidity
37984;DHT22;64625;50.882;4.376;2023-02-23T00:00:41;10.10;99.90
37984;DHT22;64625;50.882;4.376;2023-02-23T00:03:09;10.10;99.90
37984;DHT22;64625;50.882;4.376;2023-02-23T00:05:35;10.00;99.90
37984;DHT22;64625;50.882;4.376;2023-02-23T00:08:01;10.00;99.90
37984;DHT22;64625;50.882;4.376;2023-02-23T00:10:28;10.00;99.90
37984;DHT22;64625;50.882;4.376;2023-02-23T00:12:58;10.00;99.90
37984;DHT22;64625;50.882;4.376;2023-02-23T00:15:26;10.00;99.90
37984;DHT22;64625;50.882;4.376;2023-02-23T00:17:53;10.00;99.90
37984;DHT22;64625;50.882;4.376;2023-02-23T00:20:20;10.00;99.90
37984;DHT22;64625;50.882;4.376;2023-02-23T00:22:54;10.00;99.90
37984;DHT22;64625;50.882;4.376;2023-02-23T00:25:22;10.00;99.90
37984;DHT22;64625;50.882;4.376;2023-02-23T00:27:51;10.00;99.90
37984;DHT22;64625;50.882;4.376;2023-02-23T00:30:18;10.00;99.90
37984;DHT22;64625;50.882;4.376;2023-02-23T00:32:44;10.00;99.90
37984;DHT22;64625;50.882;4.376;2023-02-23T00:35:10;10.00;99.90
37984;DHT22;64625;50.882;4.376;2023-02-23T00:37:51;10.00;99.90
37984;DHT22;64625;50.882;4.376;2023-02-23T00:40:17;10.00;99.90
37984;DHT22;64625;50.882;4.376;2023-02-23T00:42:46;10.00;99.90
37984;DHT22;64625;50.882;4.376;2023-02-23T00:45:14;9.90;99.90
37984;DHT22;64625;50.882;4.376;2023-02-23T00:47:41;9.90;99.90
37984;DHT22;64625;50.882;4.376;2023-02-23T00:50:12;9.90;99.90
37984;DHT22;64625;50.882;4.376;2023-02-23T00:52:43;9.90;99.90
37984;DHT22;64625;50.882;4.376;2023-02-23T00:55:13;9.90;99.90
37984;DHT22;64625;50.882;4.376;2023-02-23T00:57:40;9.90;99.90
37984;DHT22;64625;50.882;4.376;2023-02-23T01:00:08;9.90;99.90
37984;DHT22;64625;50.882;4.376;2023-02-23T01:02:46;9.90;99.90
37984;DHT22;64625;50.882;4.376;2023-02-23T01:05:12;9.90;99.90
37984;DHT22;64625;50.882;4.376;2023-02-23T01:07:39;9.90;99.90
37984;DHT22;64625;50.882;4.376;2023-02-23T01:10:06;9.90;99.90
37984;DHT22;64625;50.882;4.376;2023-02-23T01:12:48;9.80;99.90
37984;DHT22;64625;50.882;4.376;2023-02-23T01:15:15;9.80;99.90
37984;DHT22;64625;50.882;4.376;2023-02-23T01:17:41;9.80;99.90
37984;DHT22;64625;50.882;4.376;2023-02-23T01:20:10;9.80;99.90
37984;DHT22;64625;50.882;4.376;2023-02-23T01:22:47;9.80;99.90
37984;DHT22;64625;50.882;4.376;2023-02-23T01:25:14;9.80;99.90
37984;DHT22;64625;50.882;4.376;2023-02-23T01:27:41;9.80;99.90
37984;DHT22;64625;50.882;4.376;2023-02-23T01:30:10;9.80;99.90
37984;DHT22;64625;50.882;4.376;2023-02-23T01:32:37;9.80;99.90
37984;DHT22;64625;50.882;4.376;2023-02-23T01:35:04;9.80;99.90
37984;DHT22;64625;50.882;4.376;2023-02-23T01:37:34;9.70;99.90
37984;DHT22;64625;50.882;4.376;2023-02-23T01:40:00;9.80;99.90
37984;DHT22;64625;50.882;4.376;2023-02-23T01:42:31;9.70;99.90
37984;DHT22;64625;50.882;4.376;2023-02-23T01:47:41;9.80;99.90
37984;DHT22;64625;50.882;4.376;2023-02-23T01:50:07;9.70;99.90
37984;DHT22;64625;50.882;4.376;2023-02-23T01:52:37;9.70;99.90
37984;DHT22;64625;50.882;4.376;2023-02-23T01:55:05;9.70;99.90
37984;DHT22;64625;50.882;4.376;2023-02-23T01:57:32;9.70;99.90
37984;DHT22;64625;50.882;4.376;2023-02-23T01:59:57;9.70;99.90
37984;DHT22;64625;50.882;4.376;2023-02-23T02:02:26;9.70;99.90
37984;DHT22;64625;50.882;4.376;2023-02-23T02:04:58;9.70;99.90
37984;DHT22;64625;50.882;4.376;2023-02-23T02:07:29;9.70;99.90
37984;DHT22;64625;50.882;4.376;2023-02-23T02:09:57;9.70;99.90
37984;DHT22;64625;50.882;4.376;2023-02-23T02:12:45;9.70;99.90
37984;DHT22;64625;50.882;4.376;2023-02-23T02:15:13;9.70;99.90
37984;DHT22;64625;50.882;4.376;2023-02-23T02:35:07;9.60;99.90
37984;DHT22;64625;50.882;4.376;2023-02-23T02:43:14;9.60;99.90
37984;DHT22;64625;50.882;4.376;2023-02-23T02:45:48;9.60;99.90
37984;DHT22;64625;50.882;4.376;2023-02-23T02:51:18;9.60;99.90
37984;DHT22;64625;50.882;4.376;2023-02-23T02:54:00;9.60;99.90
37984;DHT22;64625;50.882;4.376;2023-02-23T02:56:35;9.60;99.90
37984;DHT22;64625;50.882;4.376;2023-02-23T02:59:16;9.60;99.90
37984;DHT22;64625;50.882;4.376;2023-02-23T03:02:04;9.60;99.90
37984;DHT22;64625;50.882;4.376;2023-02-23T03:04:48;9.60;99.90
37984;DHT22;64625;50.882;4.376;2023-02-23T03:19:57;9.50;99.90
37984;DHT22;64625;50.882;4.376;2023-02-23T03:23:18;9.50;99.90
37984;DHT22;64625;50.882;4.376;2023-02-23T03:29:18;9.50;99.90
37984;DHT22;64625;50.882;4.376;2023-02-23T03:32:31;9.50;99.90
37984;DHT22;64625;50.882;4.376;2023-02-23T03:41:02;9.50;99.90
37984;DHT22;64625;50.882;4.376;2023-02-23T03:43:55;9.40;99.90
37984;DHT22;64625;50.882;4.376;2023-02-23T03:46:44;9.40;99.90
37984;DHT22;64625;50.882;4.376;2023-02-23T03:49:35;9.40;99.90
37984;DHT22;64625;50.882;4.376;2023-02-23T03:52:25;9.40;99.90
37984;DHT22;64625;50.882;4.376;2023-02-23T03:55:17;9.40;99.90
37984;DHT22;64625;50.882;4.376;2023-02-23T03:58:10;9.40;99.90
37984;DHT22;64625;50.882;4.376;2023-02-23T04:00:58;9.40;99.90
37984;DHT22;64625;50.882;4.376;2023-02-23T04:03:44;9.40;99.90
37984;DHT22;64625;50.882;4.376;2023-02-23T04:06:33;9.30;99.90
37984;DHT22;64625;50.882;4.376;2023-02-23T04:09:19;9.30;99.90
37984;DHT22;64625;50.882;4.376;2023-02-23T04:15:33;9.30;99.90
37984;DHT22;64625;50.882;4.376;2023-02-23T04:18:03;9.30;99.90
37984;DHT22;64625;50.882;4.376;2023-02-23T04:20:30;9.30;99.90
37984;DHT22;64625;50.882;4.376;2023-02-23T04:22:55;9.30;99.90
37984;DHT22;64625;50.882;4.376;2023-02-23T04:25:21;9.30;99.90
37984;DHT22;64625;50.882;4.376;2023-02-23T04:27:50;9.30;99.90
37984;DHT22;64625;50.882;4.376;2023-02-23T04:30:16;9.30;99.90
37984;DHT22;64625;50.882;4.376;2023-02-23T04:32:43;9.30;99.90
37984;DHT22;64625;50.882;4.376;2023-02-23T04:35:11;9.30;99.90
37984;DHT22;64625;50.882;4.376;2023-02-23T04:37:37;9.30;99.90
37984;DHT22;64625;50.882;4.376;2023-02-23T04:40:04;9.30;99.90
37984;DHT22;64625;50.882;4.376;2023-02-23T04:42:30;9.30;99.90
37984;DHT22;64625;50.882;4.376;2023-02-23T04:44:56;9.30;99.90
37984;DHT22;64625;50.882;4.376;2023-02-23T04:47:22;9.30;99.90
37984;DHT22;64625;50.882;4.376;2023-02-23T04:49:48;9.30;99.90
37984;DHT22;64625;50.882;4.376;2023-02-23T04:52:13;9.30;99.90
37984;DHT22;64625;50.882;4.376;2023-02-23T04:54:40;9.30;99.90
37984;DHT22;64625;50.882;4.376;2023-02-23T04:57:07;9.30;99.90
37984;DHT22;64625;50.882;4.376;2023-02-23T04:59:33;9.30;99.90
37984;DHT22;64625;50.882;4.376;2023-02-23T05:01:59;9.30;99.90
37984;DHT22;64625;50.882;4.376;2023-02-23T05:04:25;9.30;99.90
37984;DHT22;64625;50.882;4.376;2023-02-23T05:06:51;9.30;99.90
37984;DHT22;64625;50.882;4.376;2023-02-23T05:09:17;9.30;99.90
37984;DHT22;64625;50.882;4.376;2023-02-23T05:11:43;9.30;99.90
37984;DHT22;64625;50.882;4.376;2023-02-23T05:14:09;9.30;99.90
37984;DHT22;64625;50.882;4.376;2023-02-23T05:16:38;9.30;99.90
37984;DHT22;64625;50.882;4.376;2023-02-23T05:19:04;9.30;99.90
37984;DHT22;64625;50.882;4.376;2023-02-23T05:21:30;9.30;99.90
37984;DHT22;64625;50.882;4.376;2023-02-23T05:23:56;9.30;99.90
37984;DHT22;64625;50.882;4.376;2023-02-23T05:26:22;9.30;99.90
37984;DHT22;64625;50.882;4.376;2023-02-23T05:28:48;9.20;99.90
37984;DHT22;64625;50.882;4.376;2023-02-23T05:31:14;9.20;99.90
37984;DHT22;64625;50.882;4.376;2023-02-23T05:33:40;9.20;99.90
37984;DHT22;64625;50.882;4.376;2023-02-23T05:36:14;9.20;99.90
37984;DHT22;64625;50.882;4.376;2023-02-23T05:38:43;9.20;99.90
37984;DHT22;64625;50.882;4.376;2023-02-23T05:41:15;9.20;99.90
37984;DHT22;64625;50.882;4.376;2023-02-23T05:43:41;9.20;99.90
37984;DHT22;64625;50.882;4.376;2023-02-23T05:46:08;9.20;99.90
37984;DHT22;64625;50.882;4.376;2023-02-23T05:48:35;9.20;99.90
37984;DHT22;64625;50.882;4.376;2023-02-23T05:51:05;9.20;99.90
37984;DHT22;64625;50.882;4.376;2023-02-23T05:53:31;9.20;99.90
37984;DHT22;64625;50.882;4.376;2023-02-23T05:55:57;9.20;99.90
37984;DHT22;64625;50.882;4.376;2023-02-23T05:58:23;9.20;99.90
37984;DHT22;64625;50.882;4.376;2023-02-23T06:00:49;9.20;99.90
37984;DHT22;64625;50.882;4.376;2023-02-23T06:03:16;9.20;99.90
37984;DHT22;64625;50.882;4.376;2023-02-23T06:05:42;9.20;99.90
37984;DHT22;64625;50.882;4.376;2023-02-23T06:08:08;9.20;99.90
37984;DHT22;64625;50.882;4.376;2023-02-23T06:10:34;9.20;99.90
37984;DHT22;64625;50.882;4.376;2023-02-23T06:12:59;9.10;99.90
37984;DHT22;64625;50.882;4.376;2023-02-23T06:15:25;9.10;99.90
37984;DHT22;64625;50.882;4.376;2023-02-23T06:17:51;9.10;99.90
37984;DHT22;64625;50.882;4.376;2023-02-23T06:20:18;9.10;99.90
37984;DHT22;64625;50.882;4.376;2023-02-23T06:22:43;9.10;99.90
37984;DHT22;64625;50.882;4.376;2023-02-23T06:25:09;9.10;99.90
37984;DHT22;64625;50.882;4.376;2023-02-23T06:27:38;9.10;99.90
37984;DHT22;64625;50.882;4.376;2023-02-23T06:30:05;9.10;99.90
37984;DHT22;64625;50.882;4.376;2023-02-23T06:32:31;9.10;99.90
37984;DHT22;64625;50.882;4.376;2023-02-23T06:34:57;9.10;99.90
37984;DHT22;64625;50.882;4.376;2023-02-23T06:37:23;9.10;99.90
37984;DHT22;64625;50.882;4.376;2023-02-23T06:39:48;9.00;99.90
37984;DHT22;64625;50.882;4.376;2023-02-23T06:42:15;9.00;99.90
37984;DHT22;64625;50.882;4.376;2023-02-23T06:44:41;9.00;99.90
37984;DHT22;64625;50.882;4.376;2023-02-23T06:47:07;9.00;99.90
37984;DHT22;64625;50.882;4.376;2023-02-23T06:49:33;9.00;99.90
37984;DHT22;64625;50.882;4.376;2023-02-23T06:51:59;9.00;99.90
37984;DHT22;64625;50.882;4.376;2023-02-23T06:54:25;9.00;99.90
37984;DHT22;64625;50.882;4.376;2023-02-23T06:56:51;9.00;99.90
37984;DHT22;64625;50.882;4.376;2023-02-23T06:59:17;9.00;99.90
37984;DHT22;64625;50.882;4.376;2023-02-23T07:01:43;9.00;99.90
37984;DHT22;64625;50.882;4.376;2023-02-23T07:04:10;9.00;99.90
37984;DHT22;64625;50.882;4.376;2023-02-23T07:06:36;9.00;99.90
37984;DHT22;64625;50.882;4.376;2023-02-23T07:09:03;9.00;99.90
37984;DHT22;64625;50.882;4.376;2023-02-23T07:11:30;9.00;99.90
37984;DHT22;64625;50.882;4.376;2023-02-23T07:13:59;9.00;99.90
37984;DHT22;64625;50.882;4.376;2023-02-23T07:16:27;9.00;99.90
37984;DHT22;64625;50.882;4.376;2023-02-23T07:18:54;9.00;99.90
37984;DHT22;64625;50.882;4.376;2023-02-23T07:21:20;9.00;99.90
37984;DHT22;64625;50.882;4.376;2023-02-23T07:23:47;9.10;99.90
37984;DHT22;64625;50.882;4.376;2023-02-23T07:28:49;9.00;99.90
37984;DHT22;64625;50.882;4.376;2023-02-23T07:31:15;9.00;99.90
37984;DHT22;64625;50.882;4.376;2023-02-23T07:33:41;9.10;99.90
37984;DHT22;64625;50.882;4.376;2023-02-23T07:36:27;9.00;99.90
37984;DHT22;64625;50.882;4.376;2023-02-23T07:39:11;9.10;99.90
37984;DHT22;64625;50.882;4.376;2023-02-23T07:41:37;9.10;99.90
37984;DHT22;64625;50.882;4.376;2023-02-23T07:44:04;9.10;99.90
37984;DHT22;64625;50.882;4.376;2023-02-23T07:46:30;9.00;99.90
37984;DHT22;64625;50.882;4.376;2023-02-23T07:48:55;9.10;99.90
37984;DHT22;64625;50.882;4.376;2023-02-23T07:51:21;9.10;99.90
37984;DHT22;64625;50.882;4.376;2023-02-23T07:54:03;9.10;99.90
37984;DHT22;64625;50.882;4.376;2023-02-23T07:56:49;9.10;99.90
37984;DHT22;64625;50.882;4.376;2023-02-23T07:59:14;9.10;99.90
37984;DHT22;64625;50.882;4.376;2023-02-23T08:01:44;9.20;99.90
37984;DHT22;64625;50.882;4.376;2023-02-23T08:04:21;9.20;99.90
37984;DHT22;64625;50.882;4.376;2023-02-23T08:06:49;9.20;99.90
37984;DHT22;64625;50.882;4.376;2023-02-23T08:09:26;9.20;99.90
37984;DHT22;64625;50.882;4.376;2023-02-23T08:11:52;9.20;99.90
37984;DHT22;64625;50.882;4.376;2023-02-23T08:14:18;9.20;99.90
37984;DHT22;64625;50.882;4.376;2023-02-23T08:16:48;9.30;99.90
37984;DHT22;64625;50.882;4.376;2023-02-23T08:19:14;9.30;99.90
37984;DHT22;64625;50.882;4.376;2023-02-23T08:21:40;9.30;99.90
37984;DHT22;64625;50.882;4.376;2023-02-23T08:24:08;9.30;99.90
37984;DHT22;64625;50.882;4.376;2023-02-23T08:26:35;9.40;99.90
37984;DHT22;64625;50.882;4.376;2023-02-23T08:29:03;9.40;99.90
37984;DHT22;64625;50.882;4.376;2023-02-23T08:31:29;9.40;99.90
37984;DHT22;64625;50.882;4.376;2023-02-23T08:33:55;9.40;99.90
37984;DHT22;64625;50.882;4.376;2023-02-23T08:36:21;9.50;99.90
37984;DHT22;64625;50.882;4.376;2023-02-23T08:38:47;9.50;99.90
37984;DHT22;64625;50.882;4.376;2023-02-23T08:41:13;9.50;99.90
37984;DHT22;64625;50.882;4.376;2023-02-23T08:43:39;9.50;99.90
37984;DHT22;64625;50.882;4.376;2023-02-23T08:46:05;9.50;99.90
37984;DHT22;64625;50.882;4.376;2023-02-23T08:48:32;9.60;99.90
37984;DHT22;64625;50.882;4.376;2023-02-23T08:50:58;9.60;99.90
37984;DHT22;64625;50.882;4.376;2023-02-23T08:53:25;9.60;99.90
37984;DHT22;64625;50.882;4.376;2023-02-23T08:56:03;9.60;99.90
37984;DHT22;64625;50.882;4.376;2023-02-23T08:58:30;9.60;99.90
37984;DHT22;64625;50.882;4.376;2023-02-23T09:00:58;9.60;99.90
37984;DHT22;64625;50.882;4.376;2023-02-23T09:03:25;9.60;99.90
37984;DHT22;64625;50.882;4.376;2023-02-23T09:05:53;9.70;99.90
37984;DHT22;64625;50.882;4.376;2023-02-23T09:08:19;9.70;99.90
37984;DHT22;64625;50.882;4.376;2023-02-23T09:10:46;9.70;99.90
37984;DHT22;64625;50.882;4.376;2023-02-23T09:13:12;9.70;99.90
37984;DHT22;64625;50.882;4.376;2023-02-23T09:15:39;9.80;99.90
37984;DHT22;64625;50.882;4.376;2023-02-23T09:18:06;9.80;99.90
37984;DHT22;64625;50.882;4.376;2023-02-23T09:20:33;9.80;99.90
37984;DHT22;64625;50.882;4.376;2023-02-23T09:22:59;9.80;99.90
37984;DHT22;64625;50.882;4.376;2023-02-23T09:25:24;9.90;99.90
37984;DHT22;64625;50.882;4.376;2023-02-23T09:27:53;9.90;99.90
37984;DHT22;64625;50.882;4.376;2023-02-23T09:30:20;9.90;99.90
37984;DHT22;64625;50.882;4.376;2023-02-23T09:32:49;10.00;99.90
37984;DHT22;64625;50.882;4.376;2023-02-23T09:35:16;10.00;99.90
37984;DHT22;64625;50.882;4.376;2023-02-23T09:38:01;10.00;99.90
37984;DHT22;64625;50.882;4.376;2023-02-23T09:40:52;10.10;99.90
37984;DHT22;64625;50.882;4.376;2023-02-23T09:48:58;10.20;99.90
37984;DHT22;64625;50.882;4.376;2023-02-23T09:51:25;10.20;99.90
37984;DHT22;64625;50.882;4.376;2023-02-23T09:53:56;10.30;99.90
37984;DHT22;64625;50.882;4.376;2023-02-23T09:56:35;10.30;99.90
37984;DHT22;64625;50.882;4.376;2023-02-23T09:59:04;10.30;99.90
37984;DHT22;64625;50.882;4.376;2023-02-23T10:04:27;10.30;99.90
37984;DHT22;64625;50.882;4.376;2023-02-23T10:07:23;10.30;99.90
37984;DHT22;64625;50.882;4.376;2023-02-23T10:10:30;10.30;99.90
37984;DHT22;64625;50.882;4.376;2023-02-23T10:15:55;10.30;99.90
37984;DHT22;64625;50.882;4.376;2023-02-23T10:18:28;10.40;99.90
37984;DHT22;64625;50.882;4.376;2023-02-23T10:24:12;10.40;99.90
37984;DHT22;64625;50.882;4.376;2023-02-23T10:26:48;10.50;99.90
37984;DHT22;64625;50.882;4.376;2023-02-23T10:29:28;10.60;99.90
37984;DHT22;64625;50.882;4.376;2023-02-23T10:32:04;10.60;99.90
37984;DHT22;64625;50.882;4.376;2023-02-23T10:34:31;10.70;99.90
37984;DHT22;64625;50.882;4.376;2023-02-23T10:36:59;10.70;99.90
37984;DHT22;64625;50.882;4.376;2023-02-23T10:39:29;10.80;99.90
37984;DHT22;64625;50.882;4.376;2023-02-23T10:41:59;10.80;99.90
37984;DHT22;64625;50.882;4.376;2023-02-23T10:44:27;10.90;99.90
37984;DHT22;64625;50.882;4.376;2023-02-23T10:47:18;10.90;99.90
37984;DHT22;64625;50.882;4.376;2023-02-23T10:52:15;11.00;99.90
37984;DHT22;64625;50.882;4.376;2023-02-23T10:54:44;11.00;99.90
37984;DHT22;64625;50.882;4.376;2023-02-23T10:57:24;11.00;99.90
37984;DHT22;64625;50.882;4.376;2023-02-23T11:02:45;11.10;99.90
37984;DHT22;64625;50.882;4.376;2023-02-23T11:13:43;11.10;99.90
37984;DHT22;64625;50.882;4.376;2023-02-23T11:16:18;11.20;99.90
37984;DHT22;64625;50.882;4.376;2023-02-23T11:19:01;11.20;99.90
37984;DHT22;64625;50.882;4.376;2023-02-23T11:21:30;11.20;99.90
37984;DHT22;64625;50.882;4.376;2023-02-23T11:26:45;11.20;99.90
37984;DHT22;64625;50.882;4.376;2023-02-23T11:29:30;11.20;99.90
37984;DHT22;64625;50.882;4.376;2023-02-23T11:32:14;11.20;99.90
37984;DHT22;64625;50.882;4.376;2023-02-23T11:34:45;11.20;99.90
37984;DHT22;64625;50.882;4.376;2023-02-23T11:39:57;11.20;99.90
37984;DHT22;64625;50.882;4.376;2023-02-23T11:42:54;11.20;99.90
37984;DHT22;64625;50.882;4.376;2023-02-23T11:45:25;11.20;99.90
37984;DHT22;64625;50.882;4.376;2023-02-23T11:47:55;11.30;99.90
37984;DHT22;64625;50.882;4.376;2023-02-23T11:50:25;11.30;99.90
37984;DHT22;64625;50.882;4.376;2023-02-23T11:53:16;11.30;99.90
37984;DHT22;64625;50.882;4.376;2023-02-23T11:55:51;11.40;99.90
37984;DHT22;64625;50.882;4.376;2023-02-23T12:01:15;11.40;99.90
37984;DHT22;64625;50.882;4.376;2023-02-23T12:03:55;11.40;99.90
37984;DHT22;64625;50.882;4.376;2023-02-23T12:06:26;11.40;99.90
37984;DHT22;64625;50.882;4.376;2023-02-23T12:09:00;11.40;99.90
37984;DHT22;64625;50.882;4.376;2023-02-23T12:11:33;11.50;99.90
37984;DHT22;64625;50.882;4.376;2023-02-23T12:14:23;11.50;99.90
37984;DHT22;64625;50.882;4.376;2023-02-23T12:16:56;11.50;99.90
37984;DHT22;64625;50.882;4.376;2023-02-23T12:19:36;11.50;99.90
37984;DHT22;64625;50.882;4.376;2023-02-23T12:22:14;11.50;99.90
37984;DHT22;64625;50.882;4.376;2023-02-23T12:25:00;11.50;99.90
37984;DHT22;64625;50.882;4.376;2023-02-23T12:28:00;11.60;99.90
37984;DHT22;64625;50.882;4.376;2023-02-23T12:30:45;11.60;99.90
37984;DHT22;64625;50.882;4.376;2023-02-23T12:33:14;11.60;99.90
37984;DHT22;64625;50.882;4.376;2023-02-23T12:35:58;11.60;99.90
37984;DHT22;64625;50.882;4.376;2023-02-23T12:41:20;11.60;99.90
37984;DHT22;64625;50.882;4.376;2023-02-23T12:43:54;11.70;99.90
37984;DHT22;64625;50.882;4.376;2023-02-23T12:46:20;11.70;99.90
37984;DHT22;64625;50.882;4.376;2023-02-23T12:51:52;11.70;99.90
37984;DHT22;64625;50.882;4.376;2023-02-23T12:54:16;11.70;99.90
37984;DHT22;64625;50.882;4.376;2023-02-23T12:59:55;11.70;99.90
37984;DHT22;64625;50.882;4.376;2023-02-23T13:02:25;11.80;99.90
37984;DHT22;64625;50.882;4.376;2023-02-23T13:05:17;11.80;99.90
37984;DHT22;64625;50.882;4.376;2023-02-23T13:19:32;11.90;99.90
37984;DHT22;64625;50.882;4.376;2023-02-23T13:21:39;11.80;99.90
37984;DHT22;64625;50.882;4.376;2023-02-23T13:24:17;11.80;99.90
37984;DHT22;64625;50.882;4.376;2023-02-23T13:27:22;11.80;99.90
37984;DHT22;64625;50.882;4.376;2023-02-23T13:29:46;11.80;99.90
37984;DHT22;64625;50.882;4.376;2023-02-23T13:32:23;11.80;99.90
37984;DHT22;64625;50.882;4.376;2023-02-23T13:34:52;11.80;99.90
37984;DHT22;64625;50.882;4.376;2023-02-23T13:37:26;11.70;99.90
37984;DHT22;64625;50.882;4.376;2023-02-23T13:40:35;11.70;99.90
37984;DHT22;64625;50.882;4.376;2023-02-23T13:42:57;11.60;99.90
37984;DHT22;64625;50.882;4.376;2023-02-23T13:51:11;11.60;99.90
37984;DHT22;64625;50.882;4.376;2023-02-23T13:56:23;11.60;99.90
37984;DHT22;64625;50.882;4.376;2023-02-23T13:59:00;11.60;99.90
37984;DHT22;64625;50.882;4.376;2023-02-23T14:03:57;11.60;99.90
37984;DHT22;64625;50.882;4.376;2023-02-23T14:06:27;11.60;99.90
37984;DHT22;64625;50.882;4.376;2023-02-23T14:09:10;11.60;99.90
37984;DHT22;64625;50.882;4.376;2023-02-23T14:14:36;11.60;99.90
37984;DHT22;64625;50.882;4.376;2023-02-23T14:22:36;11.70;99.90
37984;DHT22;64625;50.882;4.376;2023-02-23T14:28:02;11.70;99.90
37984;DHT22;64625;50.882;4.376;2023-02-23T14:33:57;11.70;99.90
37984;DHT22;64625;50.882;4.376;2023-02-23T14:38:59;11.70;99.90
37984;DHT22;64625;50.882;4.376;2023-02-23T14:41:29;11.80;99.90
37984;DHT22;64625;50.882;4.376;2023-02-23T14:47:19;11.80;99.90
37984;DHT22;64625;50.882;4.376;2023-02-23T14:50:01;11.90;99.90
37984;DHT22;64625;50.882;4.376;2023-02-23T14:52:35;11.90;99.90
37984;DHT22;64625;50.882;4.376;2023-02-23T14:57:40;11.90;99.90
37984;DHT22;64625;50.882;4.376;2023-02-23T15:02:51;11.90;99.90
37984;DHT22;64625;50.882;4.376;2023-02-23T15:05:19;11.90;99.90
37984;DHT22;64625;50.882;4.376;2023-02-23T15:07:46;11.90;99.90
37984;DHT22;64625;50.882;4.376;2023-02-23T15:10:25;12.00;99.90
37984;DHT22;64625;50.882;4.376;2023-02-23T15:12:52;11.90;99.90
37984;DHT22;64625;50.882;4.376;2023-02-23T15:15:22;12.00;99.90
37984;DHT22;64625;50.882;4.376;2023-02-23T15:17:52;12.00;99.90
37984;DHT22;64625;50.882;4.376;2023-02-23T15:20:22;12.00;99.90
37984;DHT22;64625;50.882;4.376;2023-02-23T15:22:54;12.00;99.90
37984;DHT22;64625;50.882;4.376;2023-02-23T15:25:36;12.00;99.90
37984;DHT22;64625;50.882;4.376;2023-02-23T15:30:47;12.10;99.90
37984;DHT22;64625;50.882;4.376;2023-02-23T15:33:16;12.00;99.90
37984;DHT22;64625;50.882;4.376;2023-02-23T15:38:28;12.10;99.90
37984;DHT22;64625;50.882;4.376;2023-02-23T15:41:06;12.10;99.90
37984;DHT22;64625;50.882;4.376;2023-02-23T15:43:33;12.10;99.90
37984;DHT22;64625;50.882;4.376;2023-02-23T15:46:02;12.10;99.90
37984;DHT22;64625;50.882;4.376;2023-02-23T15:48:42;12.10;99.90
37984;DHT22;64625;50.882;4.376;2023-02-23T15:51:32;12.10;99.90
37984;DHT22;64625;50.882;4.376;2023-02-23T15:54:00;12.10;99.90
37984;DHT22;64625;50.882;4.376;2023-02-23T15:56:29;12.10;99.90
37984;DHT22;64625;50.882;4.376;2023-02-23T15:59:04;12.00;99.90
37984;DHT22;64625;50.882;4.376;2023-02-23T16:01:33;12.10;99.90
37984;DHT22;64625;50.882;4.376;2023-02-23T16:04:07;12.00;99.90
37984;DHT22;64625;50.882;4.376;2023-02-23T16:06:49;12.00;99.90
37984;DHT22;64625;50.882;4.376;2023-02-23T16:14:48;11.90;99.90
37984;DHT22;64625;50.882;4.376;2023-02-23T16:17:26;11.90;99.90
37984;DHT22;64625;50.882;4.376;2023-02-23T16:20:10;11.90;99.90
37984;DHT22;64625;50.882;4.376;2023-02-23T16:22:38;11.80;99.90
37984;DHT22;64625;50.882;4.376;2023-02-23T16:25:10;11.80;99.90
37984;DHT22;64625;50.882;4.376;2023-02-23T16:27:37;11.80;99.90
37984;DHT22;64625;50.882;4.376;2023-02-23T16:32:42;11.80;99.90
37984;DHT22;64625;50.882;4.376;2023-02-23T16:35:15;11.70;99.90
37984;DHT22;64625;50.882;4.376;2023-02-23T16:37:51;11.70;99.90
37984;DHT22;64625;50.882;4.376;2023-02-23T16:40:20;11.70;99.90
37984;DHT22;64625;50.882;4.376;2023-02-23T16:42:46;11.70;99.90
37984;DHT22;64625;50.882;4.376;2023-02-23T16:45:30;11.70;99.90
37984;DHT22;64625;50.882;4.376;2023-02-23T16:47:56;11.60;99.90
37984;DHT22;64625;50.882;4.376;2023-02-23T16:50:27;11.60;99.90
37984;DHT22;64625;50.882;4.376;2023-02-23T16:52:53;11.60;99.90
37984;DHT22;64625;50.882;4.376;2023-02-23T16:55:25;11.60;99.90
37984;DHT22;64625;50.882;4.376;2023-02-23T16:57:52;11.60;99.90
37984;DHT22;64625;50.882;4.376;2023-02-23T17:00:22;11.50;99.90
37984;DHT22;64625;50.882;4.376;2023-02-23T17:02:49;11.50;99.90
37984;DHT22;64625;50.882;4.376;2023-02-23T17:05:19;11.50;99.90
37984;DHT22;64625;50.882;4.376;2023-02-23T17:07:47;11.40;99.90
37984;DHT22;64625;50.882;4.376;2023-02-23T17:15:22;11.40;99.90
37984;DHT22;64625;50.882;4.376;2023-02-23T17:17:49;11.40;99.90
37984;DHT22;64625;50.882;4.376;2023-02-23T17:20:18;11.40;99.90
37984;DHT22;64625;50.882;4.376;2023-02-23T17:22:48;11.30;99.90
37984;DHT22;64625;50.882;4.376;2023-02-23T17:25:14;11.30;99.90
37984;DHT22;64625;50.882;4.376;2023-02-23T17:27:40;11.30;99.90
37984;DHT22;64625;50.882;4.376;2023-02-23T17:30:08;11.30;99.90
37984;DHT22;64625;50.882;4.376;2023-02-23T17:32:34;11.30;99.90
37984;DHT22;64625;50.882;4.376;2023-02-23T17:35:00;11.30;99.90
37984;DHT22;64625;50.882;4.376;2023-02-23T17:37:26;11.30;99.90
37984;DHT22;64625;50.882;4.376;2023-02-23T17:39:52;11.30;99.90
37984;DHT22;64625;50.882;4.376;2023-02-23T17:42:18;11.30;99.90
37984;DHT22;64625;50.882;4.376;2023-02-23T17:44:44;11.20;99.90
37984;DHT22;64625;50.882;4.376;2023-02-23T17:47:10;11.20;99.90
37984;DHT22;64625;50.882;4.376;2023-02-23T17:49:36;11.20;99.90
37984;DHT22;64625;50.882;4.376;2023-02-23T17:52:02;11.20;99.90
37984;DHT22;64625;50.882;4.376;2023-02-23T17:54:29;11.20;99.90
37984;DHT22;64625;50.882;4.376;2023-02-23T17:56:55;11.20;99.90
37984;DHT22;64625;50.882;4.376;2023-02-23T17:59:21;11.20;99.90
37984;DHT22;64625;50.882;4.376;2023-02-23T18:01:47;11.20;99.90
37984;DHT22;64625;50.882;4.376;2023-02-23T18:04:14;11.20;99.90
37984;DHT22;64625;50.882;4.376;2023-02-23T18:06:40;11.20;99.90
37984;DHT22;64625;50.882;4.376;2023-02-23T18:09:06;11.10;99.90
37984;DHT22;64625;50.882;4.376;2023-02-23T18:11:33;11.10;99.90
37984;DHT22;64625;50.882;4.376;2023-02-23T18:14:00;11.10;99.90
37984;DHT22;64625;50.882;4.376;2023-02-23T18:16:27;11.10;99.90
37984;DHT22;64625;50.882;4.376;2023-02-23T18:18:54;11.10;99.90
37984;DHT22;64625;50.882;4.376;2023-02-23T18:21:22;11.10;99.90
37984;DHT22;64625;50.882;4.376;2023-02-23T18:23:49;11.10;99.90
37984;DHT22;64625;50.882;4.376;2023-02-23T18:26:18;11.00;99.90
37984;DHT22;64625;50.882;4.376;2023-02-23T18:28:44;11.00;99.90
37984;DHT22;64625;50.882;4.376;2023-02-23T18:31:13;11.10;99.90
37984;DHT22;64625;50.882;4.376;2023-02-23T18:33:40;11.00;99.90
37984;DHT22;64625;50.882;4.376;2023-02-23T18:36:33;11.10;99.90
37984;DHT22;64625;50.882;4.376;2023-02-23T18:39:05;11.00;99.90
37984;DHT22;64625;50.882;4.376;2023-02-23T18:41:31;11.00;99.90
37984;DHT22;64625;50.882;4.376;2023-02-23T18:44:02;11.00;99.90
37984;DHT22;64625;50.882;4.376;2023-02-23T18:46:28;11.00;99.90
37984;DHT22;64625;50.882;4.376;2023-02-23T18:48:55;11.00;99.90
37984;DHT22;64625;50.882;4.376;2023-02-23T18:51:21;11.00;99.90